Terminal Aerodrome Forecast
Issued by NWS

Home | Current Version | Previous Version | Graphics & Text | Print | Product List | Glossary On
Versions: 1 2 3 4 5 6 7 8 9 10 11 12 13 14 15 16 17 18 19 20 21 22
270
FTUS43 KBIS 190522
TAFDIK
TAF
KDIK 190522Z 1906/2006 13005KT 2SM BR SKC
     FM190800 VRB04KT 3/4SM BR FEW005
     FM191000 VRB04KT 1/4SM FG SCT003
     FM191400 15005KT 1SM BR SCT003
     FM191600 15007KT P6SM SCT200=

USA.gov is the U.S. government's official web portal to all federal, state and local government web resources and services.